Aviation Digital Data Service (ADDS)

Output produced by METARs form (1911 UTC 27 July 2016)
found at http://www.aviationweather.gov/adds/metars/
 
KALB 271720Z 2718/2818 28006KT P6SM FEW050 
     FM280000 00000KT P6SM SKC 
     FM280700 00000KT P6SM BKN250 
     FM281500 18003KT P6SM FEW070 BKN200